createdAt,value
2023-03-28T00:00:12.351Z,0.20
2023-03-28T00:02:41.580Z,0.10
2023-03-28T00:05:11.563Z,0.10
2023-03-28T00:07:41.177Z,0.10
2023-03-28T00:10:11.429Z,0.10
2023-03-28T00:12:41.927Z,0.40
2023-03-28T00:15:11.840Z,0.10
2023-03-28T00:17:42.055Z,0.10
2023-03-28T00:20:13.219Z,0.10
2023-03-28T00:22:42.750Z,0.40
2023-03-28T00:25:12.089Z,0.30
2023-03-28T00:27:43.044Z,0.28
2023-03-28T00:30:12.840Z,0.10
2023-03-28T00:32:42.177Z,0.98
2023-03-28T00:35:11.529Z,0.40
2023-03-28T00:37:42.302Z,0.10
2023-03-28T00:40:14.435Z,0.30
2023-03-28T00:42:45.320Z,0.17
2023-03-28T00:45:14.922Z,0.35
2023-03-28T00:47:47.432Z,0.75
2023-03-28T00:50:21.733Z,0.40
2023-03-28T00:52:55.994Z,0.10
2023-03-28T00:55:28.638Z,0.20
2023-03-28T00:58:01.552Z,0.10
2023-03-28T01:00:33.143Z,0.38
2023-03-28T01:03:07.000Z,0.75
2023-03-28T01:05:38.633Z,0.20
2023-03-28T01:08:14.125Z,0.20
2023-03-28T01:10:45.456Z,0.10
2023-03-28T01:13:19.326Z,0.30
2023-03-28T01:15:51.574Z,0.38
2023-03-28T01:18:23.809Z,0.40
2023-03-28T01:21:31.489Z,0.20
2023-03-28T01:24:29.551Z,0.20
2023-03-28T01:27:08.648Z,0.10
2023-03-28T01:30:15.691Z,0.47
2023-03-28T01:33:41.017Z,0.30
2023-03-28T01:36:41.990Z,0.40
2023-03-28T01:39:19.524Z,0.90
2023-03-28T01:41:55.636Z,0.47
2023-03-28T01:44:34.222Z,0.10
2023-03-28T01:47:09.475Z,0.52
2023-03-28T01:49:49.051Z,1.20
2023-03-28T01:52:26.868Z,0.20
2023-03-28T01:55:04.569Z,0.10
2023-03-28T01:57:41.616Z,0.30
2023-03-28T02:00:20.118Z,0.20
2023-03-28T02:03:13.092Z,0.20
2023-03-28T02:05:55.747Z,0.10
2023-03-28T02:08:30.844Z,0.17
2023-03-28T02:11:18.802Z,0.20
2023-03-28T02:14:20.470Z,0.35
2023-03-28T02:17:41.980Z,0.30
2023-03-28T02:20:44.937Z,0.32
2023-03-28T02:23:38.752Z,0.30
2023-03-28T02:26:28.356Z,0.20
2023-03-28T02:29:28.659Z,0.30
2023-03-28T02:32:03.555Z,0.35
2023-03-28T02:34:33.065Z,0.20
2023-03-28T02:37:13.440Z,0.15
2023-03-28T02:40:02.146Z,0.82
2023-03-28T02:42:51.452Z,0.10
2023-03-28T02:45:52.831Z,0.25
2023-03-28T02:48:32.912Z,0.30
2023-03-28T02:51:13.101Z,0.30
2023-03-28T02:53:53.432Z,0.40
2023-03-28T02:56:32.133Z,0.30
2023-03-28T02:59:10.548Z,0.40
2023-03-28T03:01:41.936Z,0.20
2023-03-28T03:04:11.696Z,0.10
2023-03-28T03:06:41.047Z,0.30
2023-03-28T03:09:10.754Z,0.20
2023-03-28T03:11:41.397Z,0.38
2023-03-28T03:14:10.699Z,0.20
2023-03-28T03:16:40.527Z,0.15
2023-03-28T03:19:10.276Z,1.58
2023-03-28T03:21:40.166Z,0.50
2023-03-28T03:24:14.654Z,0.10
2023-03-28T03:26:47.415Z,0.10
2023-03-28T03:29:18.803Z,0.10
2023-03-28T03:31:48.488Z,0.20
2023-03-28T03:34:24.555Z,0.10
2023-03-28T03:36:57.028Z,0.20
2023-03-28T03:39:26.257Z,0.10
2023-03-28T03:41:57.728Z,0.10
2023-03-28T03:44:26.832Z,0.30
2023-03-28T03:46:56.696Z,0.40
2023-03-28T03:49:26.777Z,0.22
2023-03-28T03:51:56.001Z,0.25
2023-03-28T03:54:25.140Z,0.20
2023-03-28T03:56:55.296Z,0.10
2023-03-28T03:59:26.818Z,0.17
2023-03-28T04:01:58.617Z,0.20
2023-03-28T04:04:43.490Z,0.35
2023-03-28T04:07:26.024Z,0.25
2023-03-28T04:09:58.944Z,0.10
2023-03-28T04:12:32.397Z,0.28
2023-03-28T04:15:03.105Z,0.10
2023-03-28T04:17:41.706Z,0.20
2023-03-28T04:20:17.831Z,0.52
2023-03-28T04:23:06.184Z,0.10
2023-03-28T04:25:37.116Z,0.13
2023-03-28T04:28:28.138Z,0.75
2023-03-28T04:31:03.312Z,0.52
2023-03-28T04:34:00.648Z,0.52
2023-03-28T04:36:32.207Z,0.63
2023-03-28T04:41:55.761Z,0.10
2023-03-28T04:44:57.017Z,0.10
2023-03-28T04:47:28.498Z,0.30
2023-03-28T04:49:58.567Z,0.45
2023-03-28T04:52:28.689Z,0.17
2023-03-28T04:54:57.882Z,0.70
2023-03-28T04:57:26.891Z,0.35
2023-03-28T05:00:03.030Z,0.30
2023-03-28T05:02:56.274Z,0.20
2023-03-28T05:05:27.978Z,0.20
2023-03-28T05:07:58.631Z,0.57
2023-03-28T05:10:27.972Z,0.60
2023-03-28T05:13:04.067Z,0.45
2023-03-28T05:15:41.219Z,0.10
2023-03-28T05:18:36.790Z,0.52
2023-03-28T05:21:07.591Z,0.55
2023-03-28T05:23:36.881Z,0.28
2023-03-28T05:26:16.329Z,0.10
2023-03-28T05:28:45.739Z,0.38
2023-03-28T05:31:15.904Z,0.63
2023-03-28T05:33:47.501Z,0.47
2023-03-28T05:36:26.210Z,1.35
2023-03-28T05:38:55.139Z,0.20
2023-03-28T05:41:24.166Z,0.75
2023-03-28T05:43:53.086Z,0.40
2023-03-28T05:46:37.785Z,0.70
2023-03-28T05:49:08.458Z,0.30
2023-03-28T05:51:38.016Z,0.17
2023-03-28T05:54:07.924Z,0.10
2023-03-28T05:56:38.198Z,0.35
2023-03-28T05:59:07.262Z,0.17
2023-03-28T06:01:43.086Z,0.82
2023-03-28T06:04:15.056Z,0.20
2023-03-28T06:06:45.631Z,0.22
2023-03-28T06:09:14.551Z,0.60
2023-03-28T06:11:51.664Z,0.85
2023-03-28T06:14:21.881Z,0.30
2023-03-28T06:16:51.137Z,0.20
2023-03-28T06:19:22.841Z,0.95
2023-03-28T06:21:54.923Z,0.73
2023-03-28T06:24:24.102Z,0.90
2023-03-28T06:26:53.021Z,1.15
2023-03-28T06:29:25.712Z,0.40
2023-03-28T06:32:02.651Z,0.38
2023-03-28T06:34:33.507Z,0.82
2023-03-28T06:37:04.137Z,2.67
2023-03-28T06:39:46.841Z,2.33
2023-03-28T06:42:16.163Z,1.73
2023-03-28T06:44:56.127Z,1.85
2023-03-28T06:47:32.649Z,1.98
2023-03-28T06:50:03.411Z,1.27
2023-03-28T06:52:41.256Z,0.55
2023-03-28T06:55:12.307Z,0.57
2023-03-28T06:57:41.621Z,1.63
2023-03-28T07:00:25.366Z,0.40
2023-03-28T07:03:20.614Z,0.43
2023-03-28T07:05:51.560Z,0.57
2023-03-28T07:08:21.637Z,2.33
2023-03-28T07:10:51.692Z,0.50
2023-03-28T07:13:20.815Z,0.20
2023-03-28T07:16:14.536Z,0.30
2023-03-28T07:18:45.070Z,0.20
2023-03-28T07:21:22.412Z,2.10
2023-03-28T07:23:51.832Z,0.52
2023-03-28T07:26:28.323Z,0.45
2023-03-28T07:28:57.697Z,0.43
2023-03-28T07:31:27.730Z,0.38
2023-03-28T07:34:00.680Z,0.30
2023-03-28T07:36:31.599Z,1.33
2023-03-28T07:39:10.511Z,0.20
2023-03-28T07:41:40.814Z,0.40
2023-03-28T07:44:09.944Z,0.32
2023-03-28T07:46:39.409Z,0.20
2023-03-28T07:49:08.848Z,0.20
2023-03-28T07:51:39.666Z,0.63
2023-03-28T07:54:17.881Z,0.57
2023-03-28T07:56:49.509Z,0.68
2023-03-28T08:02:13.424Z,0.32
2023-03-28T08:04:42.836Z,0.30
2023-03-28T08:07:16.439Z,0.63
2023-03-28T08:09:51.171Z,1.10
2023-03-28T08:12:27.559Z,0.32
2023-03-28T08:14:56.788Z,0.40
2023-03-28T08:17:26.979Z,0.13
2023-03-28T08:19:58.516Z,0.17
2023-03-28T08:22:34.102Z,0.63
2023-03-28T08:25:33.183Z,0.65
2023-03-28T08:28:04.138Z,0.20
2023-03-28T08:30:36.072Z,0.13
2023-03-28T08:33:06.188Z,0.38
2023-03-28T08:35:36.335Z,0.88
2023-03-28T08:38:15.444Z,0.35
2023-03-28T08:40:53.782Z,0.10
2023-03-28T08:43:54.534Z,0.77
2023-03-28T08:46:25.769Z,1.05
2023-03-28T08:48:56.385Z,0.45
2023-03-28T08:51:30.892Z,2.13
2023-03-28T08:54:10.061Z,0.52
2023-03-28T08:56:45.144Z,2.50
2023-03-28T08:59:17.797Z,0.90
2023-03-28T09:01:47.477Z,1.40
2023-03-28T09:04:30.656Z,2.17
2023-03-28T09:07:18.825Z,1.75
2023-03-28T09:10:07.889Z,1.52
2023-03-28T09:13:01.730Z,0.20
2023-03-28T09:15:41.970Z,0.70
2023-03-28T09:18:37.468Z,0.13
2023-03-28T09:21:15.066Z,1.45
2023-03-28T09:23:59.953Z,0.38
2023-03-28T09:26:43.681Z,1.75
2023-03-28T09:29:20.205Z,1.33
2023-03-28T09:31:52.222Z,0.30
2023-03-28T09:34:28.137Z,0.70
2023-03-28T09:37:12.977Z,0.30
2023-03-28T09:39:51.597Z,0.50
2023-03-28T09:42:36.421Z,0.20
2023-03-28T09:45:54.002Z,0.40
2023-03-28T09:48:42.123Z,0.90
2023-03-28T09:51:18.444Z,0.10
2023-03-28T09:53:48.600Z,0.20
2023-03-28T09:56:27.842Z,0.85
2023-03-28T09:59:06.858Z,0.40
2023-03-28T10:01:46.405Z,0.30
2023-03-28T10:04:37.132Z,0.35
2023-03-28T10:07:28.367Z,0.20
2023-03-28T10:10:12.632Z,0.20
2023-03-28T10:12:43.906Z,0.50
2023-03-28T10:15:33.746Z,0.20
2023-03-28T10:18:23.007Z,0.40
2023-03-28T10:21:14.406Z,0.43
2023-03-28T10:23:50.103Z,0.55
2023-03-28T10:26:23.985Z,0.65
2023-03-28T10:28:55.680Z,0.50
2023-03-28T10:31:30.750Z,0.50
2023-03-28T10:34:28.752Z,0.60
2023-03-28T10:37:25.517Z,0.32
2023-03-28T10:40:30.611Z,0.80
2023-03-28T10:43:18.242Z,0.52
2023-03-28T10:46:16.785Z,0.40
2023-03-28T10:49:07.672Z,0.63
2023-03-28T10:51:41.641Z,0.20
2023-03-28T10:54:38.997Z,0.30
2023-03-28T10:57:24.455Z,0.40
2023-03-28T11:00:01.583Z,0.63
2023-03-28T11:02:50.320Z,0.40
2023-03-28T11:05:38.972Z,0.15
2023-03-28T11:08:31.655Z,0.28
2023-03-28T11:11:15.555Z,0.35
2023-03-28T11:14:01.893Z,0.93
2023-03-28T11:16:46.050Z,0.10
2023-03-28T11:19:51.068Z,0.45
2023-03-28T11:22:31.357Z,0.52
2023-03-28T11:25:13.664Z,0.55
2023-03-28T11:28:13.608Z,0.30
2023-03-28T11:30:50.104Z,0.65
2023-03-28T11:33:34.688Z,0.20
2023-03-28T11:36:22.298Z,0.10
2023-03-28T11:38:58.140Z,0.50
2023-03-28T11:41:34.723Z,0.20
2023-03-28T11:44:29.269Z,0.30
2023-03-28T11:47:04.154Z,0.30
2023-03-28T11:49:39.718Z,0.88
2023-03-28T11:52:27.268Z,0.20
2023-03-28T11:55:14.536Z,0.57
2023-03-28T11:57:54.975Z,0.40
2023-03-28T12:00:33.398Z,0.20
2023-03-28T12:03:17.254Z,0.35
2023-03-28T12:06:04.583Z,0.45
2023-03-28T12:08:40.892Z,0.47
2023-03-28T12:11:18.034Z,0.20
2023-03-28T12:14:22.344Z,0.30
2023-03-28T12:16:55.559Z,0.35
2023-03-28T12:19:34.231Z,0.52
2023-03-28T12:22:20.972Z,0.10
2023-03-28T12:27:57.406Z,0.45
2023-03-28T12:30:36.758Z,3.22
2023-03-28T12:33:17.910Z,4.28
2023-03-28T12:36:05.896Z,7.70
2023-03-28T12:38:42.555Z,6.97
2023-03-28T12:41:25.676Z,5.25
2023-03-28T12:44:00.254Z,5.28
2023-03-28T12:46:46.719Z,2.05
2023-03-28T12:49:34.273Z,0.73
2023-03-28T12:52:10.005Z,2.53
2023-03-28T12:55:01.431Z,1.40
2023-03-28T12:57:49.148Z,0.65
2023-03-28T13:00:52.074Z,1.55
2023-03-28T13:03:52.848Z,1.65
2023-03-28T13:06:41.071Z,1.17
2023-03-28T13:09:23.516Z,2.22
2023-03-28T13:12:00.166Z,2.42
2023-03-28T13:14:37.666Z,1.02
2023-03-28T13:17:22.021Z,1.75
2023-03-28T13:19:54.198Z,2.80
2023-03-28T13:22:33.742Z,1.60
2023-03-28T13:25:26.113Z,0.93
2023-03-28T13:27:57.348Z,2.65
2023-03-28T13:30:30.470Z,1.67
2023-03-28T13:35:41.222Z,0.10
2023-03-28T13:38:35.213Z,1.00
2023-03-28T13:41:07.487Z,0.85
2023-03-28T13:43:43.982Z,0.82
2023-03-28T13:46:16.397Z,0.95
2023-03-28T13:49:02.174Z,1.40
2023-03-28T13:51:38.357Z,1.10
2023-03-28T13:54:07.540Z,0.55
2023-03-28T13:56:41.215Z,1.60
2023-03-28T13:59:16.861Z,1.23
2023-03-28T14:01:49.458Z,0.50
2023-03-28T14:04:23.061Z,0.40
2023-03-28T14:06:53.067Z,0.22
2023-03-28T14:09:31.640Z,0.40
2023-03-28T14:12:05.520Z,0.47
2023-03-28T14:14:38.544Z,0.28
2023-03-28T14:17:10.278Z,1.38
2023-03-28T14:19:43.439Z,0.60
2023-03-28T14:24:46.983Z,0.50
2023-03-28T14:27:17.918Z,1.45
2023-03-28T14:29:54.102Z,0.15
2023-03-28T14:32:27.164Z,0.40
2023-03-28T14:37:30.091Z,0.75
2023-03-28T14:40:00.218Z,0.20
2023-03-28T14:42:32.574Z,0.30
2023-03-28T14:45:01.832Z,1.08
2023-03-28T14:47:34.469Z,0.63
2023-03-28T14:50:06.038Z,0.60
2023-03-28T14:52:41.265Z,0.20
2023-03-28T14:55:18.386Z,0.30
2023-03-28T14:57:50.834Z,0.95
2023-03-28T15:00:24.174Z,0.20
2023-03-28T15:02:54.058Z,0.77
2023-03-28T15:05:25.210Z,0.45
2023-03-28T15:07:58.665Z,0.17
2023-03-28T15:10:28.718Z,0.95
2023-03-28T15:13:06.427Z,0.20
2023-03-28T15:15:38.390Z,0.52
2023-03-28T15:18:10.030Z,0.30
2023-03-28T15:20:44.090Z,0.82
2023-03-28T15:23:18.246Z,0.10
2023-03-28T15:25:48.037Z,1.27
2023-03-28T15:28:19.854Z,0.63
2023-03-28T15:30:51.194Z,0.25
2023-03-28T15:33:24.910Z,0.93
2023-03-28T15:36:08.687Z,0.25
2023-03-28T15:38:40.777Z,0.50
2023-03-28T15:41:12.618Z,0.13
2023-03-28T15:43:59.149Z,0.22
2023-03-28T15:46:33.312Z,0.60
2023-03-28T15:49:04.493Z,0.60
2023-03-28T15:51:44.840Z,0.35
2023-03-28T15:54:28.103Z,0.45
2023-03-28T15:57:03.319Z,0.10
2023-03-28T15:59:36.528Z,0.32
2023-03-28T16:04:59.882Z,0.30
2023-03-28T16:07:35.208Z,0.45
2023-03-28T16:10:05.299Z,0.20
2023-03-28T16:12:44.091Z,0.20
2023-03-28T16:15:38.723Z,0.47
2023-03-28T16:18:39.997Z,0.40
2023-03-28T16:21:11.745Z,0.47
2023-03-28T16:23:42.356Z,1.08
2023-03-28T16:26:11.701Z,1.70
2023-03-28T16:28:40.977Z,0.20
2023-03-28T16:31:15.211Z,0.32
2023-03-28T16:33:44.556Z,0.32
2023-03-28T16:36:14.460Z,0.95
2023-03-28T16:38:45.321Z,0.47
2023-03-28T16:41:15.038Z,0.45
2023-03-28T16:43:44.222Z,0.65
2023-03-28T16:46:14.089Z,1.00
2023-03-28T16:48:43.200Z,1.02
2023-03-28T16:51:12.199Z,0.20
2023-03-28T16:53:42.312Z,0.52
2023-03-28T16:56:15.125Z,1.05
2023-03-28T16:58:44.485Z,0.90
2023-03-28T17:01:15.770Z,0.20
2023-03-28T17:03:46.153Z,0.82
2023-03-28T17:06:16.504Z,1.55
2023-03-28T17:08:46.131Z,0.50
2023-03-28T17:11:17.695Z,0.63
2023-03-28T17:13:47.769Z,0.40
2023-03-28T17:16:17.153Z,0.70
2023-03-28T17:18:46.249Z,0.55
2023-03-28T17:21:17.479Z,0.20
2023-03-28T17:23:51.130Z,0.50
2023-03-28T17:26:21.848Z,0.15
2023-03-28T17:28:52.407Z,0.30
2023-03-28T17:31:22.204Z,0.40
2023-03-28T17:33:52.498Z,0.75
2023-03-28T17:36:24.362Z,5.05
2023-03-28T17:38:56.299Z,1.02
2023-03-28T17:41:28.086Z,2.42
2023-03-28T17:43:58.653Z,3.40
2023-03-28T17:46:28.315Z,1.33
2023-03-28T17:48:57.648Z,1.00
2023-03-28T17:51:26.717Z,1.13
2023-03-28T17:53:56.043Z,0.82
2023-03-28T17:56:26.565Z,0.47
2023-03-28T17:58:56.559Z,1.27
2023-03-28T18:01:25.651Z,0.57
2023-03-28T18:03:55.104Z,0.55
2023-03-28T18:06:47.359Z,0.52
2023-03-28T18:09:17.010Z,0.57
2023-03-28T18:11:49.379Z,0.25
2023-03-28T18:14:18.763Z,0.82
2023-03-28T18:16:48.913Z,0.20
2023-03-28T18:19:19.086Z,0.50
2023-03-28T18:21:48.344Z,1.15
2023-03-28T18:24:17.883Z,0.82
2023-03-28T18:26:48.577Z,0.80
2023-03-28T18:29:17.790Z,1.42
2023-03-28T18:31:47.542Z,0.20
2023-03-28T18:34:16.681Z,0.17
2023-03-28T18:36:45.835Z,0.25
2023-03-28T18:39:15.597Z,0.28
2023-03-28T18:41:45.069Z,0.52
2023-03-28T18:44:15.617Z,0.63
2023-03-28T18:46:44.850Z,0.95
2023-03-28T18:49:14.323Z,0.35
2023-03-28T18:51:43.605Z,0.20
2023-03-28T18:54:12.680Z,0.10
2023-03-28T18:56:41.867Z,0.82
2023-03-28T18:59:12.856Z,0.52
2023-03-28T19:01:49.838Z,0.60
2023-03-28T19:04:19.246Z,0.40
2023-03-28T19:06:49.395Z,0.35
2023-03-28T19:09:18.652Z,0.95
2023-03-28T19:11:47.740Z,1.98
2023-03-28T19:14:16.916Z,1.17
2023-03-28T19:16:47.870Z,1.85
2023-03-28T19:19:17.295Z,0.88
2023-03-28T19:21:46.424Z,0.63
2023-03-28T19:24:15.768Z,0.85
2023-03-28T19:26:44.822Z,0.20
2023-03-28T19:29:13.998Z,0.95
2023-03-28T19:31:43.590Z,1.13
2023-03-28T19:34:18.246Z,0.20
2023-03-28T19:36:47.748Z,0.10
2023-03-28T19:39:17.053Z,0.10
2023-03-28T19:41:46.170Z,0.45
2023-03-28T19:44:15.164Z,0.73
2023-03-28T19:46:44.303Z,0.52
2023-03-28T19:49:13.572Z,0.13
2023-03-28T19:51:44.169Z,0.10
2023-03-28T19:54:13.201Z,0.45
2023-03-28T19:56:42.279Z,0.68
2023-03-28T19:59:11.566Z,0.40
2023-03-28T20:01:40.638Z,0.20
2023-03-28T20:04:09.847Z,0.10
2023-03-28T20:06:38.934Z,0.10
2023-03-28T20:09:09.628Z,0.10
2023-03-28T20:11:42.219Z,0.10
2023-03-28T20:14:11.345Z,0.30
2023-03-28T20:16:40.442Z,0.28
2023-03-28T20:19:12.512Z,0.30
2023-03-28T20:21:42.373Z,0.30
2023-03-28T20:24:13.656Z,0.20
2023-03-28T20:26:42.793Z,0.17
2023-03-28T20:29:14.049Z,0.35
2023-03-28T20:31:43.287Z,0.50
2023-03-28T20:34:12.389Z,0.40
2023-03-28T20:36:42.571Z,0.25
2023-03-28T20:39:13.134Z,0.55
2023-03-28T20:41:43.549Z,0.75
2023-03-28T20:44:20.225Z,0.20
2023-03-28T20:46:50.275Z,0.30
2023-03-28T20:49:21.522Z,0.52
2023-03-28T20:51:53.194Z,0.55
2023-03-28T20:54:24.640Z,0.47
2023-03-28T20:56:54.201Z,0.50
2023-03-28T20:59:24.771Z,0.13
2023-03-28T21:01:54.850Z,0.15
2023-03-28T21:04:24.010Z,0.10
2023-03-28T21:06:55.416Z,0.10
2023-03-28T21:09:25.937Z,0.47
2023-03-28T21:11:54.960Z,0.68
2023-03-28T21:14:26.731Z,0.85
2023-03-28T21:16:58.173Z,0.20
2023-03-28T21:19:27.657Z,0.20
2023-03-28T21:21:57.360Z,0.90
2023-03-28T21:24:28.420Z,0.30
2023-03-28T21:26:57.555Z,0.60
2023-03-28T21:29:26.707Z,0.50
2023-03-28T21:31:56.744Z,0.20
2023-03-28T21:34:33.785Z,0.20
2023-03-28T21:37:03.114Z,0.60
2023-03-28T21:39:33.624Z,0.75
2023-03-28T21:42:02.617Z,0.20
2023-03-28T21:44:31.718Z,0.32
2023-03-28T21:47:00.983Z,0.20
2023-03-28T21:49:30.938Z,0.38
2023-03-28T21:52:00.050Z,0.32
2023-03-28T21:54:29.076Z,0.85
2023-03-28T21:56:59.867Z,0.10
2023-03-28T21:59:29.746Z,0.20
2023-03-28T22:01:59.659Z,0.75
2023-03-28T22:04:29.636Z,0.20
2023-03-28T22:06:58.662Z,0.20
2023-03-28T22:09:28.278Z,0.32
2023-03-28T22:11:59.842Z,0.10
2023-03-28T22:14:28.918Z,0.75
2023-03-28T22:16:57.934Z,0.93
2023-03-28T22:19:30.282Z,0.43
2023-03-28T22:24:30.964Z,0.47
2023-03-28T22:27:01.622Z,0.13
2023-03-28T22:29:31.162Z,0.20
2023-03-28T22:32:00.297Z,0.10
2023-03-28T22:34:29.478Z,0.52
2023-03-28T22:36:58.567Z,0.20
2023-03-28T22:39:27.600Z,0.40
2023-03-28T22:41:56.820Z,0.10
2023-03-28T22:44:27.557Z,0.10
2023-03-28T22:47:02.223Z,0.10
2023-03-28T22:49:34.213Z,0.57
2023-03-28T22:52:03.443Z,0.20
2023-03-28T22:54:33.136Z,0.30
2023-03-28T22:57:04.072Z,0.43
2023-03-28T22:59:36.656Z,0.20
2023-03-28T23:02:06.272Z,0.30
2023-03-28T23:04:36.013Z,0.60
2023-03-28T23:07:05.853Z,0.57
2023-03-28T23:09:37.484Z,0.65
2023-03-28T23:12:07.501Z,1.17
2023-03-28T23:14:38.046Z,0.30
2023-03-28T23:17:07.261Z,0.13
2023-03-28T23:19:36.362Z,0.57
2023-03-28T23:22:06.727Z,0.30
2023-03-28T23:24:37.133Z,0.20
2023-03-28T23:27:07.509Z,0.17
2023-03-28T23:29:38.515Z,0.10
2023-03-28T23:32:07.651Z,0.77
2023-03-28T23:34:37.651Z,0.38
2023-03-28T23:37:07.403Z,0.32
2023-03-28T23:39:37.714Z,0.25
2023-03-28T23:42:07.205Z,0.50
2023-03-28T23:44:38.049Z,0.20
2023-03-28T23:47:07.285Z,1.02
2023-03-28T23:49:36.820Z,0.85
2023-03-28T23:52:06.140Z,0.28
2023-03-28T23:54:35.783Z,0.30
2023-03-28T23:57:05.873Z,0.45
2023-03-28T23:59:35.125Z,0.50
